createdAt,value
2023-05-02T00:01:59.468Z,11.00
2023-05-02T00:04:47.439Z,13.00
2023-05-02T00:07:33.883Z,11.25
2023-05-02T00:10:20.744Z,10.00
2023-05-02T00:13:16.091Z,12.00
2023-05-02T00:16:03.144Z,9.00
2023-05-02T00:18:30.203Z,11.00
2023-05-02T00:20:57.328Z,14.75
2023-05-02T00:23:24.437Z,16.00
2023-05-02T00:25:51.473Z,16.00
2023-05-02T00:28:19.010Z,12.25
2023-05-02T00:30:47.094Z,10.00
2023-05-02T00:33:15.269Z,9.00
2023-05-02T00:35:42.454Z,8.00
2023-05-02T00:38:09.502Z,8.75
2023-05-02T00:40:48.104Z,5.00
2023-05-02T00:43:16.193Z,7.25
2023-05-02T00:45:44.880Z,11.75
2023-05-02T00:48:12.315Z,8.00
2023-05-02T00:50:42.361Z,8.00
2023-05-02T00:53:12.140Z,7.00
2023-05-02T00:55:39.268Z,7.00
2023-05-02T00:58:11.188Z,8.00
2023-05-02T01:01:00.122Z,9.25
2023-05-02T01:03:40.551Z,6.00
2023-05-02T01:06:25.024Z,14.75
2023-05-02T01:09:18.636Z,15.50
2023-05-02T01:12:46.733Z,16.25
2023-05-02T01:15:36.185Z,17.00
2023-05-02T01:18:04.699Z,16.25
2023-05-02T01:20:37.178Z,15.00
2023-05-02T01:23:11.955Z,10.00
2023-05-02T01:26:02.630Z,13.00
2023-05-02T01:28:36.928Z,21.50
2023-05-02T01:31:06.657Z,23.50
2023-05-02T01:33:36.267Z,16.75
2023-05-02T01:36:03.856Z,19.25
2023-05-02T01:38:33.215Z,15.75
2023-05-02T01:41:05.563Z,14.00
2023-05-02T01:43:35.414Z,10.75
2023-05-02T01:46:05.317Z,9.75
2023-05-02T01:48:33.108Z,5.00
2023-05-02T01:51:00.830Z,7.00
2023-05-02T01:53:31.259Z,5.25
2023-05-02T01:56:00.858Z,5.00
2023-05-02T01:58:31.152Z,4.25
2023-05-02T02:01:01.840Z,7.00
2023-05-02T02:03:32.306Z,10.00
2023-05-02T02:06:01.561Z,15.00
2023-05-02T02:08:28.512Z,11.00
2023-05-02T02:11:00.943Z,10.50
2023-05-02T02:13:47.797Z,9.50
2023-05-02T02:16:24.837Z,15.00
2023-05-02T02:18:55.311Z,15.75
2023-05-02T02:21:25.508Z,12.50
2023-05-02T02:23:56.549Z,15.00
2023-05-02T02:26:24.003Z,12.00
2023-05-02T02:28:51.308Z,10.75
2023-05-02T02:31:18.254Z,9.00
2023-05-02T02:33:45.309Z,5.50
2023-05-02T02:36:28.963Z,7.00
2023-05-02T02:39:15.230Z,5.00
2023-05-02T02:42:08.550Z,4.50
2023-05-02T02:45:10.445Z,4.00
2023-05-02T02:47:45.251Z,3.50
2023-05-02T02:50:23.385Z,4.00
2023-05-02T02:53:02.735Z,3.00
2023-05-02T02:55:53.762Z,2.00
2023-05-02T02:58:58.998Z,1.00
2023-05-02T03:01:28.450Z,3.00
2023-05-02T03:03:57.617Z,3.00
2023-05-02T03:06:25.445Z,4.00
2023-05-02T03:08:52.454Z,2.00
2023-05-02T03:11:19.380Z,4.00
2023-05-02T03:13:46.512Z,5.00
2023-05-02T03:16:34.266Z,4.00
2023-05-02T03:19:01.446Z,5.00
2023-05-02T03:21:28.390Z,4.00
2023-05-02T03:23:55.304Z,4.00
2023-05-02T03:26:22.271Z,5.00
2023-05-02T03:28:50.602Z,1.00
2023-05-02T03:31:17.657Z,2.75
2023-05-02T03:33:44.744Z,4.50
2023-05-02T03:36:11.626Z,4.00
2023-05-02T03:38:38.554Z,3.75
2023-05-02T03:41:06.070Z,3.25
2023-05-02T03:43:33.118Z,4.00
2023-05-02T03:46:09.451Z,3.75
2023-05-02T03:48:36.806Z,4.00
2023-05-02T03:51:05.986Z,4.75
2023-05-02T03:53:33.118Z,4.50
2023-05-02T03:56:00.079Z,4.00
2023-05-02T03:58:27.411Z,4.00
2023-05-02T04:00:55.145Z,2.50
2023-05-02T04:03:23.049Z,2.00
2023-05-02T04:05:51.883Z,2.50
2023-05-02T04:08:19.296Z,2.25
2023-05-02T04:10:46.988Z,2.00
2023-05-02T04:13:13.954Z,2.00
2023-05-02T04:15:40.953Z,4.00
2023-05-02T04:18:08.067Z,3.00
2023-05-02T04:20:35.042Z,3.00
2023-05-02T04:23:01.996Z,2.75
2023-05-02T04:25:29.278Z,2.00
2023-05-02T04:27:56.979Z,2.00
2023-05-02T04:30:23.891Z,3.00
2023-05-02T04:32:51.220Z,2.00
2023-05-02T04:35:20.767Z,2.00
2023-05-02T04:37:47.759Z,3.00
2023-05-02T04:40:14.777Z,3.25
2023-05-02T04:42:41.813Z,2.75
2023-05-02T04:45:09.433Z,4.00
2023-05-02T04:47:36.571Z,3.00
2023-05-02T04:50:03.627Z,3.00
2023-05-02T04:52:30.796Z,2.00
2023-05-02T04:54:57.698Z,3.00
2023-05-02T04:57:24.753Z,3.00
2023-05-02T04:59:51.682Z,2.75
2023-05-02T05:02:18.695Z,1.75
2023-05-02T05:04:46.304Z,2.00
2023-05-02T05:07:13.254Z,3.00
2023-05-02T05:09:40.142Z,2.75
2023-05-02T05:12:07.894Z,2.00
2023-05-02T05:14:35.275Z,4.00
2023-05-02T05:17:02.182Z,3.75
2023-05-02T05:19:29.177Z,2.25
2023-05-02T05:21:56.058Z,4.00
2023-05-02T05:24:22.992Z,2.00
2023-05-02T05:26:49.981Z,2.00
2023-05-02T05:29:18.425Z,2.00
2023-05-02T05:31:45.491Z,2.00
2023-05-02T05:34:12.974Z,2.67
2023-05-02T05:36:43.312Z,1.67
2023-05-02T05:39:10.940Z,3.00
2023-05-02T05:41:38.533Z,2.00
2023-05-02T05:44:05.691Z,2.00
2023-05-02T05:46:32.696Z,3.00
2023-05-02T05:48:59.689Z,1.00
2023-05-02T05:51:27.950Z,4.00
2023-05-02T05:53:54.873Z,4.00
2023-05-02T05:56:23.084Z,3.67
2023-05-02T05:58:50.075Z,2.00
2023-05-02T06:01:16.949Z,3.00
2023-05-02T06:03:44.059Z,3.00
2023-05-02T06:06:11.114Z,3.00
2023-05-02T06:08:38.070Z,2.67
2023-05-02T06:11:09.817Z,3.00
2023-05-02T06:13:36.775Z,1.67
2023-05-02T06:16:03.923Z,4.00
2023-05-02T06:18:30.977Z,3.00
2023-05-02T06:20:58.297Z,3.00
2023-05-02T06:23:25.218Z,3.33
2023-05-02T06:25:52.133Z,3.00
2023-05-02T06:28:19.036Z,3.33
2023-05-02T06:30:45.958Z,2.00
2023-05-02T06:33:13.156Z,3.00
2023-05-02T06:35:40.082Z,2.00
2023-05-02T06:38:07.293Z,2.33
2023-05-02T06:40:36.629Z,2.00
2023-05-02T06:43:03.666Z,2.33
2023-05-02T06:45:30.563Z,2.00
2023-05-02T06:47:57.511Z,3.00
2023-05-02T06:50:24.401Z,2.00
2023-05-02T06:52:51.295Z,3.00
2023-05-02T06:55:18.198Z,2.33
2023-05-02T06:57:45.185Z,2.00
2023-05-02T07:00:12.870Z,1.33
2023-05-02T07:02:39.805Z,3.00
2023-05-02T07:05:07.149Z,2.00
2023-05-02T07:07:34.050Z,2.00
2023-05-02T07:10:01.148Z,2.00
2023-05-02T07:12:28.969Z,2.00
2023-05-02T07:14:56.146Z,1.00
2023-05-02T07:17:23.792Z,2.00
2023-05-02T07:19:51.344Z,2.00
2023-05-02T07:22:18.529Z,2.00
2023-05-02T07:24:45.693Z,1.67
2023-05-02T07:27:13.505Z,2.00
2023-05-02T07:29:42.705Z,5.67
2023-05-02T07:32:09.767Z,5.00
2023-05-02T07:34:36.978Z,5.00
2023-05-02T07:37:03.910Z,5.33
2023-05-02T07:39:33.138Z,9.00
2023-05-02T07:42:00.147Z,7.33
2023-05-02T07:44:27.102Z,5.00
2023-05-02T07:46:53.989Z,5.00
2023-05-02T07:49:20.936Z,3.00
2023-05-02T07:51:48.105Z,3.00
2023-05-02T07:54:19.478Z,2.67
2023-05-02T07:56:47.491Z,2.33
2023-05-02T07:59:14.391Z,2.00
2023-05-02T08:01:42.080Z,2.00
2023-05-02T08:04:13.401Z,6.00
2023-05-02T08:06:40.415Z,5.67
2023-05-02T08:09:07.525Z,5.00
2023-05-02T08:11:34.419Z,2.67
2023-05-02T08:14:01.457Z,2.67
2023-05-02T08:16:28.452Z,1.67
2023-05-02T08:18:55.447Z,1.67
2023-05-02T08:21:22.565Z,0.00
2023-05-02T08:23:49.500Z,1.33
2023-05-02T08:26:19.154Z,1.67
2023-05-02T08:28:46.204Z,3.00
2023-05-02T08:31:13.189Z,0.67
2023-05-02T08:33:40.144Z,3.67
2023-05-02T08:36:17.622Z,4.33
2023-05-02T08:38:46.542Z,3.67
2023-05-02T08:41:19.657Z,5.00
2023-05-02T08:43:47.721Z,3.00
2023-05-02T08:46:16.832Z,2.00
2023-05-02T08:48:49.841Z,1.00
2023-05-02T08:53:52.412Z,3.00
2023-05-02T08:56:19.873Z,2.33
2023-05-02T08:58:46.867Z,0.67
2023-05-02T09:01:16.960Z,1.00
2023-05-02T09:03:45.867Z,1.67
2023-05-02T09:06:23.217Z,1.67
2023-05-02T09:08:55.003Z,1.67
2023-05-02T09:11:22.414Z,1.00
2023-05-02T09:13:51.975Z,1.67
2023-05-02T09:16:27.479Z,0.67
2023-05-02T09:18:57.461Z,2.00
2023-05-02T09:21:43.624Z,2.00
2023-05-02T09:24:21.940Z,1.67
2023-05-02T09:27:03.628Z,2.33
2023-05-02T09:29:36.496Z,3.67
2023-05-02T09:32:04.937Z,3.00
2023-05-02T09:34:32.109Z,5.00
2023-05-02T09:36:59.062Z,3.33
2023-05-02T09:39:29.547Z,3.67
2023-05-02T09:41:57.479Z,5.00
2023-05-02T09:44:26.411Z,2.33
2023-05-02T09:47:02.424Z,2.00
2023-05-02T09:49:41.506Z,2.33
2023-05-02T09:52:19.058Z,3.00
2023-05-02T09:54:50.936Z,4.00
2023-05-02T09:57:17.880Z,4.00
2023-05-02T09:59:58.391Z,3.00
2023-05-02T10:02:26.005Z,4.00
2023-05-02T10:04:57.254Z,5.00
2023-05-02T10:07:26.006Z,3.00
2023-05-02T10:09:55.144Z,3.33
2023-05-02T10:12:25.960Z,4.00
2023-05-02T10:15:01.227Z,3.00
2023-05-02T10:17:32.823Z,3.33
2023-05-02T10:20:08.001Z,4.00
2023-05-02T10:22:37.023Z,5.00
2023-05-02T10:25:05.275Z,3.00
2023-05-02T10:27:33.149Z,3.33
2023-05-02T10:30:00.907Z,3.00
2023-05-02T10:32:34.200Z,4.00
2023-05-02T10:35:06.386Z,3.00
2023-05-02T10:37:36.518Z,4.00
2023-05-02T10:40:06.177Z,5.00
2023-05-02T10:42:39.057Z,8.00
2023-05-02T10:45:10.998Z,5.00
2023-05-02T10:47:38.036Z,7.00
2023-05-02T10:50:05.478Z,10.00
2023-05-02T10:52:34.606Z,14.00
2023-05-02T10:55:17.260Z,7.00
2023-05-02T10:57:59.293Z,4.00
2023-05-02T11:00:32.634Z,6.00
2023-05-02T11:03:00.678Z,7.00
2023-05-02T11:05:28.781Z,9.00
2023-05-02T11:08:20.251Z,7.00
2023-05-02T11:10:49.115Z,8.33
2023-05-02T11:13:16.029Z,11.67
2023-05-02T11:15:42.955Z,9.00
2023-05-02T11:18:14.707Z,10.00
2023-05-02T11:20:46.228Z,9.00
2023-05-02T11:23:16.535Z,8.33
2023-05-02T11:25:45.396Z,7.00
2023-05-02T11:28:37.375Z,10.00
2023-05-02T11:31:09.224Z,12.00
2023-05-02T11:33:36.533Z,11.33
2023-05-02T11:36:03.738Z,10.67
2023-05-02T11:38:39.692Z,10.67
2023-05-02T11:41:06.702Z,12.00
2023-05-02T11:43:33.593Z,11.33
2023-05-02T11:46:02.745Z,9.67
2023-05-02T11:48:31.158Z,10.00
2023-05-02T11:51:02.491Z,12.33
2023-05-02T11:53:31.561Z,9.67
2023-05-02T11:56:03.858Z,13.00
2023-05-02T11:58:35.310Z,13.67
2023-05-02T12:01:16.320Z,12.00
2023-05-02T12:03:43.708Z,12.67
2023-05-02T12:06:13.260Z,7.00
2023-05-02T12:08:41.798Z,11.00
2023-05-02T12:11:09.446Z,10.67
2023-05-02T12:13:46.426Z,13.00
2023-05-02T12:16:13.957Z,13.67
2023-05-02T12:18:41.301Z,8.00
2023-05-02T12:21:08.808Z,12.00
2023-05-02T12:23:37.628Z,12.50
2023-05-02T12:26:25.780Z,13.00
2023-05-02T12:28:55.088Z,14.00
2023-05-02T12:31:23.175Z,13.00
2023-05-02T12:33:52.035Z,12.25
2023-05-02T12:36:19.638Z,14.00
2023-05-02T12:38:57.933Z,14.00
2023-05-02T12:41:39.148Z,12.00
2023-05-02T12:44:07.553Z,11.00
2023-05-02T12:46:34.699Z,13.25
2023-05-02T12:49:12.522Z,15.00
2023-05-02T12:51:41.397Z,13.00
2023-05-02T12:54:08.563Z,12.50
2023-05-02T12:56:43.900Z,13.00
2023-05-02T12:59:26.459Z,13.00
2023-05-02T13:01:53.525Z,12.00
2023-05-02T13:04:20.559Z,10.25
2023-05-02T13:06:47.543Z,12.00
2023-05-02T13:09:14.504Z,12.00
2023-05-02T13:11:42.820Z,9.00
2023-05-02T13:14:11.693Z,11.50
2023-05-02T13:16:38.820Z,11.00
2023-05-02T13:19:06.055Z,10.75
2023-05-02T13:21:33.039Z,11.00
2023-05-02T13:24:00.012Z,11.25
2023-05-02T13:26:27.006Z,11.50
2023-05-02T13:28:53.922Z,12.00
2023-05-02T13:31:20.953Z,10.67
2023-05-02T13:33:47.997Z,9.00
2023-05-02T13:36:14.931Z,9.00
2023-05-02T13:38:42.318Z,9.00
2023-05-02T13:41:09.379Z,7.67
2023-05-02T13:43:36.328Z,9.25
2023-05-02T13:46:03.368Z,8.67
2023-05-02T13:48:30.469Z,9.00
2023-05-02T13:50:57.374Z,8.00
2023-05-02T13:53:24.302Z,10.00
2023-05-02T13:55:51.212Z,8.33
2023-05-02T13:58:18.123Z,9.67
2023-05-02T14:00:45.027Z,9.67
2023-05-02T14:03:12.082Z,11.00
2023-05-02T14:05:43.796Z,9.00
2023-05-02T14:08:11.610Z,8.67
2023-05-02T14:10:39.244Z,9.00
2023-05-02T14:13:06.120Z,8.00
2023-05-02T14:15:33.049Z,8.00
2023-05-02T14:18:00.148Z,8.00
2023-05-02T14:20:27.287Z,8.67
2023-05-02T14:22:54.226Z,7.00
2023-05-02T14:25:21.154Z,6.67
2023-05-02T14:27:48.111Z,6.00
2023-05-02T14:30:15.030Z,7.33
2023-05-02T14:32:42.029Z,5.67
2023-05-02T14:35:09.566Z,7.00
2023-05-02T14:37:36.490Z,4.00
2023-05-02T14:40:03.693Z,4.67
2023-05-02T14:42:31.099Z,5.00
2023-05-02T14:44:59.724Z,4.00
2023-05-02T14:47:29.020Z,4.00
2023-05-02T14:49:55.947Z,4.00
2023-05-02T14:52:23.336Z,4.33
2023-05-02T14:54:50.256Z,3.00
2023-05-02T14:57:17.126Z,4.00
2023-05-02T14:59:44.144Z,0.00
2023-05-02T15:02:11.425Z,2.00
2023-05-02T15:04:38.451Z,3.00
2023-05-02T15:07:05.968Z,3.00
2023-05-02T15:09:32.910Z,4.00
2023-05-02T15:11:59.800Z,3.00
2023-05-02T15:14:27.160Z,3.00
2023-05-02T15:16:54.976Z,3.00
2023-05-02T15:19:25.578Z,3.33
2023-05-02T15:21:53.492Z,2.00
2023-05-02T15:24:20.570Z,3.00
2023-05-02T15:26:47.860Z,3.00
2023-05-02T15:29:15.099Z,2.00
2023-05-02T15:31:42.114Z,3.00
2023-05-02T15:34:09.269Z,3.00
2023-05-02T15:36:39.174Z,2.00
2023-05-02T15:39:07.031Z,3.00
2023-05-02T15:41:33.922Z,2.00
2023-05-02T15:44:01.574Z,3.00
2023-05-02T15:46:28.683Z,3.00
2023-05-02T15:48:56.124Z,2.67
2023-05-02T15:51:23.066Z,2.00
2023-05-02T15:53:52.660Z,4.00
2023-05-02T15:56:21.662Z,3.00
2023-05-02T15:58:48.860Z,2.25
2023-05-02T16:01:15.845Z,4.00
2023-05-02T16:03:42.853Z,3.00
2023-05-02T16:06:10.306Z,3.00
2023-05-02T16:08:37.366Z,4.00
2023-05-02T16:11:04.487Z,3.00
2023-05-02T16:13:31.595Z,4.00
2023-05-02T16:15:58.598Z,3.00
2023-05-02T16:18:28.670Z,3.00
2023-05-02T16:20:57.291Z,4.00
2023-05-02T16:23:26.013Z,4.75
2023-05-02T16:26:03.159Z,6.00
2023-05-02T16:28:30.078Z,5.25
2023-05-02T16:30:57.085Z,5.25
2023-05-02T16:33:24.045Z,5.00
2023-05-02T16:36:01.734Z,4.75
2023-05-02T16:38:28.682Z,5.00
2023-05-02T16:40:55.669Z,5.00
2023-05-02T16:43:22.556Z,5.00
2023-05-02T16:45:59.001Z,6.00
2023-05-02T16:48:25.865Z,4.25
2023-05-02T16:50:52.941Z,6.00
2023-05-02T16:53:20.032Z,5.00
2023-05-02T16:55:46.944Z,7.00
2023-05-02T16:58:14.089Z,8.00
2023-05-02T17:00:41.181Z,8.75
2023-05-02T17:03:08.580Z,9.00
2023-05-02T17:05:35.950Z,8.75
2023-05-02T17:08:02.983Z,9.00
2023-05-02T17:10:29.991Z,11.00
2023-05-02T17:12:58.658Z,6.75
2023-05-02T17:15:25.815Z,7.00
2023-05-02T17:17:52.816Z,5.00
2023-05-02T17:20:20.700Z,4.00
2023-05-02T17:22:47.708Z,3.00
2023-05-02T17:25:14.689Z,3.50
2023-05-02T17:27:42.061Z,4.00
2023-05-02T17:30:09.652Z,3.00
2023-05-02T17:32:37.873Z,3.00
2023-05-02T17:35:05.339Z,3.00
2023-05-02T17:37:33.169Z,1.75
2023-05-02T17:40:02.497Z,1.25
2023-05-02T17:42:29.618Z,1.00
2023-05-02T17:44:56.546Z,2.00
2023-05-02T17:47:23.447Z,2.00
2023-05-02T17:49:51.474Z,3.00
2023-05-02T17:52:18.428Z,3.25
2023-05-02T17:54:45.951Z,3.50
2023-05-02T17:57:14.724Z,7.25
2023-05-02T17:59:41.984Z,6.00
2023-05-02T18:02:10.314Z,6.00
2023-05-02T18:04:37.627Z,7.00
2023-05-02T18:07:06.158Z,5.75
2023-05-02T18:09:33.295Z,6.00
2023-05-02T18:12:00.858Z,6.00
2023-05-02T18:14:27.766Z,4.00
2023-05-02T18:16:54.700Z,3.00
2023-05-02T18:19:23.220Z,4.00
2023-05-02T18:21:50.101Z,3.00
2023-05-02T18:24:17.083Z,3.00
2023-05-02T18:26:44.101Z,2.00
2023-05-02T18:29:11.089Z,3.00
2023-05-02T18:31:40.514Z,2.75
2023-05-02T18:34:07.682Z,3.25
2023-05-02T18:36:34.836Z,2.00
2023-05-02T18:39:01.773Z,3.75
2023-05-02T18:41:28.710Z,3.00
2023-05-02T18:43:57.046Z,4.00
2023-05-02T18:46:25.008Z,6.00
2023-05-02T18:48:51.946Z,6.00
2023-05-02T18:51:18.895Z,4.00
2023-05-02T18:53:46.096Z,6.00
2023-05-02T18:56:14.667Z,5.00
2023-05-02T18:58:42.417Z,5.00
2023-05-02T19:01:16.232Z,5.50
2023-05-02T19:03:44.013Z,4.00
2023-05-02T19:06:11.378Z,3.50
2023-05-02T19:08:40.428Z,5.25
2023-05-02T19:11:07.707Z,2.25
2023-05-02T19:13:34.796Z,4.00
2023-05-02T19:16:01.795Z,11.00
2023-05-02T19:18:28.788Z,15.50
2023-05-02T19:20:55.797Z,18.50
2023-05-02T19:23:23.373Z,12.25
2023-05-02T19:25:50.369Z,15.25
2023-05-02T19:28:17.567Z,14.00
2023-05-02T19:30:45.022Z,12.00
2023-05-02T19:33:12.148Z,8.75
2023-05-02T19:35:39.627Z,7.25
2023-05-02T19:38:06.591Z,7.00
2023-05-02T19:40:33.498Z,7.25
2023-05-02T19:43:00.439Z,7.75
2023-05-02T19:45:27.972Z,7.50
2023-05-02T19:47:54.942Z,7.00
2023-05-02T19:50:21.964Z,4.75
2023-05-02T19:52:50.703Z,6.50
2023-05-02T19:55:18.776Z,6.00
2023-05-02T19:57:45.798Z,7.00
2023-05-02T20:00:14.259Z,5.75
2023-05-02T20:02:41.453Z,7.00
2023-05-02T20:05:08.881Z,11.00
2023-05-02T20:07:36.174Z,13.50
2023-05-02T20:10:03.877Z,17.00
2023-05-02T20:12:30.976Z,17.00
2023-05-02T20:14:57.896Z,13.75
2023-05-02T20:17:24.902Z,14.25
2023-05-02T20:19:51.876Z,11.25
2023-05-02T20:22:19.224Z,12.50
2023-05-02T20:24:46.206Z,10.00
2023-05-02T20:27:13.124Z,11.50
2023-05-02T20:29:40.326Z,16.25
2023-05-02T20:32:08.513Z,22.00
2023-05-02T20:34:40.555Z,19.50
2023-05-02T20:37:07.487Z,18.50
2023-05-02T20:39:34.442Z,20.25
2023-05-02T20:42:01.646Z,14.50
2023-05-02T20:44:28.713Z,14.00
2023-05-02T20:46:55.847Z,21.00
2023-05-02T20:49:22.784Z,22.00
2023-05-02T20:51:50.675Z,22.00
2023-05-02T20:54:18.829Z,12.75
2023-05-02T20:56:45.825Z,13.00
2023-05-02T20:59:12.847Z,15.00
2023-05-02T21:01:39.886Z,17.50
2023-05-02T21:04:06.928Z,15.00
2023-05-02T21:06:33.970Z,15.50
2023-05-02T21:09:02.332Z,12.00
2023-05-02T21:11:29.694Z,12.00
2023-05-02T21:13:56.655Z,14.00
2023-05-02T21:16:23.779Z,12.00
2023-05-02T21:18:50.769Z,0.00
2023-05-02T21:21:17.740Z,9.75
2023-05-02T21:23:44.800Z,4.50
2023-05-02T21:26:11.719Z,8.00
2023-05-02T21:28:39.035Z,6.75
2023-05-02T21:31:07.467Z,8.00
2023-05-02T21:33:34.631Z,8.50
2023-05-02T21:36:01.662Z,7.00
2023-05-02T21:38:29.278Z,8.00
2023-05-02T21:40:56.348Z,6.00
2023-05-02T21:43:23.318Z,5.00
2023-05-02T21:45:50.600Z,16.00
2023-05-02T21:48:18.308Z,12.00
2023-05-02T21:50:45.497Z,18.50
2023-05-02T21:53:13.472Z,13.25
2023-05-02T21:55:41.289Z,13.00
2023-05-02T21:58:09.939Z,11.00
2023-05-02T22:00:38.551Z,8.25
2023-05-02T22:06:09.928Z,11.75
2023-05-02T22:08:36.948Z,17.00
2023-05-02T22:11:10.651Z,18.50
2023-05-02T22:13:37.725Z,19.50
2023-05-02T22:16:05.046Z,9.25
2023-05-02T22:18:32.018Z,17.00
2023-05-02T22:20:59.024Z,14.25
2023-05-02T22:23:25.965Z,22.00
2023-05-02T22:25:54.361Z,25.00
2023-05-02T22:28:21.357Z,25.00
2023-05-02T22:30:48.236Z,24.00
2023-05-02T22:33:15.216Z,27.00
2023-05-02T22:35:42.280Z,25.50
2023-05-02T22:38:09.367Z,28.75
2023-05-02T22:40:36.286Z,31.25
2023-05-02T22:43:03.229Z,29.00
2023-05-02T22:45:30.294Z,29.50
2023-05-02T22:47:57.291Z,31.00
2023-05-02T22:50:26.400Z,30.25
2023-05-02T22:52:57.406Z,32.75
2023-05-02T22:55:24.840Z,30.25
2023-05-02T22:57:52.256Z,27.00
2023-05-02T23:00:19.271Z,30.75
2023-05-02T23:02:46.260Z,31.00
2023-05-02T23:05:13.216Z,26.75
2023-05-02T23:07:40.407Z,24.00
2023-05-02T23:10:08.283Z,26.00
2023-05-02T23:12:35.168Z,23.25
2023-05-02T23:15:02.447Z,20.50
2023-05-02T23:17:29.437Z,22.00
2023-05-02T23:19:57.352Z,25.25
2023-05-02T23:22:24.398Z,25.00
2023-05-02T23:24:51.557Z,24.00
2023-05-02T23:27:18.465Z,22.00
2023-05-02T23:29:49.075Z,15.00
2023-05-02T23:32:16.901Z,15.75
2023-05-02T23:34:44.425Z,13.00
2023-05-02T23:37:13.020Z,12.50
2023-05-02T23:39:40.578Z,10.00
2023-05-02T23:42:08.280Z,10.75
2023-05-02T23:44:35.195Z,10.00
2023-05-02T23:47:02.201Z,7.00
2023-05-02T23:49:29.224Z,7.00
2023-05-02T23:51:56.112Z,7.75
2023-05-02T23:54:23.400Z,8.00
2023-05-02T23:56:50.385Z,9.00
2023-05-02T23:59:17.282Z,8.00
